^^
Grace C. Lehan Memorial Weather Station Historical Data
Daily Summary for October 9, 2021 Units:  Metric    English   Both
Daily Weekly Monthly Yearly
  High: Low: Average:
Temperature: 19.3 °C 14.2 °C 16.2 °C
Dew Point: 14.6 °C 11.7 °C 12.9 °C
Humidity: 91% 71.4% 82%
Wind Speed: 6.6km/h 0km/h 1km/h
Wind Gust: 19.3km/h - -
Wind- - East
Pressure: 1024.9 hPa 1023.2 hPa -
Precipitation: 0 mm    
 
 
Tabular Data for October 9, 2021
Time Temperature Dew Point Pressure Wind Wind Speed Wind Gust Humidity Rainfall Rate (Hourly) solar
00:00 14.6 °C 12.6 °C 1023.2 hPa Calm     88% 0 mm 0 W/m2
00:09 14.5 °C 12.6 °C 1023.2 hPa Calm   3.2 km/h 88.3% 0 mm 0 W/m2
00:14 14.4 °C 12.7 °C 1023.2 hPa Calm   3.2 km/h 89% 0 mm 0 W/m2
00:19 14.4 °C 12.7 °C 1023.2 hPa Calm   3.2 km/h 89% 0 mm 0 W/m2
00:24 14.4 °C 12.7 °C 1023.2 hPa Calm   3.2 km/h 89% 0 mm 0 W/m2
00:29 14.4 °C 12.7 °C 1023.2 hPa NE 0.2 km/h 4.8 km/h 89.3% 0 mm 0 W/m2
00:34 14.4 °C 12.7 °C 1023.2 hPa NE 0.2 km/h 4.8 km/h 89.2% 0 mm 0 W/m2
00:39 14.4 °C 12.6 °C 1023.2 hPa Calm   3.2 km/h 89% 0 mm 0 W/m2
00:44 14.4 °C 12.6 °C 1023.2 hPa Calm   3.2 km/h 89% 0 mm 0 W/m2
00:49 14.3 °C 12.6 °C 1023.2 hPa Calm   3.2 km/h 89% 0 mm 0 W/m2
00:54 14.3 °C 12.5 °C 1023.2 hPa Calm   3.2 km/h 89% 0 mm 0 W/m2
00:59 14.3 °C 12.6 °C 1023.2 hPa Calm   3.2 km/h 89.3% 0 mm 0 W/m2
01:04 14.2 °C 12.7 °C 1023.2 hPa Calm   3.2 km/h 90.4% 0 mm 0 W/m2
01:09 14.2 °C 12.7 °C 1023.6 hPa Calm   1.6 km/h 90.6% 0 mm 0 W/m2
01:14 14.2 °C 12.6 °C 1023.6 hPa Calm   1.6 km/h 90% 0 mm 0 W/m2
01:19 14.2 °C 12.6 °C 1023.6 hPa Calm   1.6 km/h 90% 0 mm 0 W/m2
01:24 14.3 °C 12.7 °C 1023.6 hPa Calm   1.6 km/h 90% 0 mm 0 W/m2
01:29 14.3 °C 12.7 °C 1023.6 hPa Calm   1.6 km/h 90% 0 mm 0 W/m2
01:34 14.4 °C 12.7 °C 1023.6 hPa NE 0.2 km/h 3.2 km/h 89.7% 0 mm 0 W/m2
01:39 14.4 °C 12.7 °C 1023.6 hPa NE 0.2 km/h 3.2 km/h 89% 0 mm 0 W/m2
01:44 14.5 °C 12.7 °C 1023.6 hPa Calm   3.2 km/h 89% 0 mm 0 W/m2
01:49 14.6 °C 12.8 °C 1023.6 hPa Calm   3.2 km/h 89% 0 mm 0 W/m2
01:54 14.7 °C 12.8 °C 1023.6 hPa Calm   3.2 km/h 89% 0 mm 0 W/m2
01:59 14.7 °C 12.8 °C 1023.6 hPa Calm   3.2 km/h 88.4% 0 mm 0 W/m2
02:04 14.7 °C 12.7 °C 1023.6 hPa Calm   3.2 km/h 88% 0 mm 0 W/m2
02:08 14.7 °C 12.8 °C 1023.6 hPa Calm     88% 0 mm 0 W/m2
02:30 14.8 °C 12.9 °C 1023.6 hPa Calm     88% 0 mm 0 W/m2
03:00 14.7 °C 12.6 °C 1023.6 hPa Calm     87% 0 mm 0 W/m2
03:30 14.7 °C 12.9 °C 1023.6 hPa Calm   4.8 km/h 89% 0 mm 0 W/m2
04:04 14.8 °C 12.7 °C 1023.9 hPa Calm     87% 0 mm 0 W/m2
04:09 14.8 °C 12.7 °C 1023.9 hPa Calm   1.6 km/h 87% 0 mm 0 W/m2
04:14 14.8 °C 12.7 °C 1023.9 hPa Calm   1.6 km/h 87% 0 mm 0 W/m2
04:19 14.9 °C 12.7 °C 1023.9 hPa Calm   1.6 km/h 87% 0 mm 0 W/m2
04:24 14.9 °C 12.7 °C 1023.9 hPa Calm   1.6 km/h 87% 0 mm 0 W/m2
04:29 14.9 °C 12.8 °C 1023.9 hPa NE 0.5 km/h 6.4 km/h 87% 0 mm 0 W/m2
04:34 14.9 °C 12.8 °C 1023.9 hPa Calm   6.4 km/h 87% 0 mm 0 W/m2
04:39 14.9 °C 12.8 °C 1023.9 hPa NNE 1 km/h 9.7 km/h 87% 0 mm 0 W/m2
04:44 14.9 °C 12.8 °C 1023.9 hPa Calm   9.7 km/h 87% 0 mm 0 W/m2
04:49 14.9 °C 12.8 °C 1023.9 hPa NE 0.3 km/h 9.7 km/h 87% 0 mm 0 W/m2
04:54 14.9 °C 12.8 °C 1023.9 hPa NE 0.2 km/h 9.7 km/h 87% 0 mm 0 W/m2
04:59 14.9 °C 12.8 °C 1023.9 hPa Calm   9.7 km/h 87% 0 mm 0 W/m2
05:04 14.9 °C 12.8 °C 1023.9 hPa Calm   9.7 km/h 87% 0 mm 0 W/m2
05:09 14.9 °C 12.8 °C 1023.9 hPa Calm   1.6 km/h 87% 0 mm 0 W/m2
05:14 14.9 °C 12.8 °C 1023.9 hPa WNW 0.2 km/h 8 km/h 87% 0 mm 0 W/m2
05:19 14.9 °C 12.8 °C 1023.9 hPa NW 0.6 km/h 8 km/h 87% 0 mm 0 W/m2
05:24 14.9 °C 12.7 °C 1023.9 hPa Calm   8 km/h 87% 0 mm 0 W/m2
05:29 14.8 °C 12.7 °C 1024.3 hPa Calm   8 km/h 87% 0 mm 0 W/m2
05:34 14.8 °C 12.7 °C 1023.9 hPa Calm   8 km/h 87% 0 mm 0 W/m2
05:39 14.8 °C 12.7 °C 1023.9 hPa Calm     87% 0 mm 0 W/m2
05:44 14.8 °C 12.8 °C 1023.9 hPa North 0.6 km/h 8 km/h 87.4% 0 mm 0 W/m2
05:49 14.8 °C 12.9 °C 1023.9 hPa Calm   8 km/h 88% 0 mm 0 W/m2
05:54 14.8 °C 12.9 °C 1024.3 hPa NNW 0.2 km/h 8 km/h 88% 0 mm 0 W/m2
05:59 14.8 °C 12.8 °C 1024.3 hPa NNW 0.2 km/h 8 km/h 88% 0 mm 0 W/m2
06:04 14.8 °C 12.8 °C 1023.9 hPa Calm   8 km/h 88% 0 mm 0 W/m2
06:09 14.8 °C 12.8 °C 1023.9 hPa North 0.5 km/h 4.8 km/h 88% 0 mm 0 W/m2
06:14 14.8 °C 12.8 °C 1023.9 hPa Calm   4.8 km/h 88% 0 mm 0 W/m2
06:19 14.8 °C 12.8 °C 1023.9 hPa North 0.6 km/h 8 km/h 88% 0 mm 0 W/m2
06:24 14.8 °C 12.8 °C 1023.9 hPa Calm   8 km/h 88% 0 mm 0 W/m2
06:29 14.7 °C 12.8 °C 1023.9 hPa Calm   8 km/h 88% 0 mm 0 W/m2
06:34 14.7 °C 12.7 °C 1023.9 hPa Calm   8 km/h 88% 0 mm 0 W/m2
06:39 14.7 °C 12.7 °C 1023.9 hPa Calm     88% 0 mm 0 W/m2
06:44 14.6 °C 12.8 °C 1023.9 hPa Calm   1.6 km/h 88.8% 0 mm 0 W/m2
06:49 14.6 °C 12.8 °C 1023.9 hPa NNE 0.2 km/h 4.8 km/h 89% 0 mm 0 W/m2
06:54 14.6 °C 12.8 °C 1023.9 hPa Calm   4.8 km/h 89% 0 mm 0 W/m2
06:59 14.6 °C 12.8 °C 1023.9 hPa NNE 0.3 km/h 8 km/h 89% 0 mm 5 W/m2
07:04 14.6 °C 12.7 °C 1023.9 hPa Calm   8 km/h 89% 0 mm 9 W/m2
07:09 14.5 °C 12.7 °C 1023.9 hPa NNW 0.3 km/h 8 km/h 89% 0 mm 18 W/m2
07:14 14.4 °C 12.7 °C 1023.9 hPa NNE 0.5 km/h 8 km/h 89% 0 mm 23 W/m2
07:19 14.4 °C 12.7 °C 1024.3 hPa NNW 1 km/h 14.5 km/h 89.3% 0 mm 26 W/m2
07:24 14.3 °C 12.7 °C 1024.3 hPa NNW 0.2 km/h 14.5 km/h 90% 0 mm 33 W/m2
07:29 14.3 °C 12.7 °C 1024.3 hPa Calm   14.5 km/h 90% 0 mm 39 W/m2
07:34 14.3 °C 12.7 °C 1024.3 hPa Calm   14.5 km/h 90% 0 mm 47 W/m2
07:39 14.3 °C 12.8 °C 1024.3 hPa NNW 0.2 km/h 3.2 km/h 90.5% 0 mm 47 W/m2
07:44 14.3 °C 12.8 °C 1024.6 hPa Calm   3.2 km/h 90.8% 0 mm 46 W/m2
07:49 14.3 °C 12.9 °C 1024.6 hPa Calm   3.2 km/h 91% 0 mm 46 W/m2
07:54 14.4 °C 12.9 °C 1024.6 hPa Calm   3.2 km/h 91% 0 mm 62 W/m2
07:59 14.4 °C 13 °C 1024.6 hPa NNW 0.2 km/h 4.8 km/h 91% 0 mm 65 W/m2
08:04 14.6 °C 13.1 °C 1024.3 hPa Calm     91% 0 mm 60 W/m2
08:09 14.6 °C 13.1 °C 1024.3 hPa Calm     91% 0 mm 90 W/m2
08:14 14.7 °C 13.2 °C 1024.3 hPa Calm     91% 0 mm 100 W/m2
08:19 14.8 °C 13.4 °C 1024.3 hPa Calm     91% 0 mm 111 W/m2
08:24 14.9 °C 13.4 °C 1024.3 hPa Calm   1.6 km/h 90.6% 0 mm 118 W/m2
08:29 15.1 °C 13.5 °C 1024.6 hPa NNE 0.3 km/h 4.8 km/h 90.2% 0 mm 123 W/m2
08:34 15.3 °C 13.6 °C 1024.6 hPa NNE 0.5 km/h 8 km/h 89.8% 0 mm 123 W/m2
08:39 15.4 °C 13.6 °C 1024.6 hPa NE 0.5 km/h 8 km/h 89% 0 mm 118 W/m2
08:44 15.5 °C 13.7 °C 1024.6 hPa Calm   8 km/h 89% 0 mm 107 W/m2
08:49 15.7 °C 13.8 °C 1024.6 hPa NE 0.6 km/h 8 km/h 89% 0 mm 109 W/m2
08:54 15.8 °C 13.8 °C 1024.6 hPa NE 1.4 km/h 8 km/h 88.3% 0 mm 109 W/m2
08:59 15.9 °C 13.9 °C 1024.6 hPa NE 1.6 km/h 8 km/h 87.8% 0 mm 105 W/m2
09:04 15.9 °C 13.7 °C 1024.9 hPa ENE 0.5 km/h 8 km/h 86.7% 0 mm 118 W/m2
09:09 16 °C 13.7 °C 1024.9 hPa East 1.1 km/h 9.7 km/h 86% 0 mm 120 W/m2
09:14 16.1 °C 13.8 °C 1024.9 hPa NE 2.7 km/h 11.3 km/h 86% 0 mm 141 W/m2
09:19 16.2 °C 13.7 °C 1024.6 hPa NE 2.9 km/h 11.3 km/h 85.4% 0 mm 141 W/m2
09:24 16.3 °C 13.7 °C 1024.9 hPa ENE 3.1 km/h 11.3 km/h 84.6% 0 mm 121 W/m2
09:29 16.4 °C 13.8 °C 1024.9 hPa NE 1 km/h 11.3 km/h 84.7% 0 mm 132 W/m2
09:34 16.5 °C 14 °C 1024.9 hPa ENE 1.3 km/h 11.3 km/h 85% 0 mm 148 W/m2
09:39 16.6 °C 13.9 °C 1024.9 hPa East 3.4 km/h 9.7 km/h 84.1% 0 mm 179 W/m2
09:44 16.7 °C 13.8 °C 1024.9 hPa ENE 3.7 km/h 12.9 km/h 83.3% 0 mm 274 W/m2
09:49 16.8 °C 13.9 °C 1024.9 hPa ENE 5.8 km/h 17.7 km/h 82.6% 0 mm 322 W/m2
09:54 17.1 °C 13.9 °C 1024.9 hPa East 6.4 km/h 17.7 km/h 81.7% 0 mm 332 W/m2
09:59 17.3 °C 14 °C 1024.9 hPa East 2.7 km/h 17.7 km/h 81% 0 mm 418 W/m2
10:04 17.7 °C 14.4 °C 1024.9 hPa ENE 3.7 km/h 17.7 km/h 81.1% 0 mm 496 W/m2
10:09 18.1 °C 14.5 °C 1024.9 hPa ENE 2.1 km/h 16.1 km/h 79.6% 0 mm 554 W/m2
10:14 18.4 °C 14.6 °C 1024.6 hPa East 4.7 km/h 16.1 km/h 77.9% 0 mm 677 W/m2
10:19 18.8 °C 14.4 °C 1024.6 hPa East 6.6 km/h 16.1 km/h 75.7% 0 mm 538 W/m2
10:24 18.8 °C 14.2 °C 1024.6 hPa ENE 4.8 km/h 19.3 km/h 75% 0 mm 246 W/m2
10:29 18.4 °C 14.1 °C 1024.6 hPa East 2.9 km/h 19.3 km/h 75.4% 0 mm 255 W/m2
10:34 18.2 °C 14 °C 1024.6 hPa East 1 km/h 19.3 km/h 76.3% 0 mm 229 W/m2
10:39 18.1 °C 14.2 °C 1024.6 hPa East 0.8 km/h 6.4 km/h 77.9% 0 mm 237 W/m2
10:44 18.2 °C 14.2 °C 1024.6 hPa ENE 1 km/h 6.4 km/h 77.3% 0 mm 239 W/m2
10:49 18.2 °C 14.2 °C 1024.6 hPa ENE 1.9 km/h 11.3 km/h 77.5% 0 mm 285 W/m2
10:54 18.3 °C 14.2 °C 1024.6 hPa ENE 4.3 km/h 14.5 km/h 76.9% 0 mm 294 W/m2
10:59 18.3 °C 14.1 °C 1024.9 hPa East 2.7 km/h 14.5 km/h 76.2% 0 mm 285 W/m2
11:04 18.4 °C 14 °C 1024.9 hPa East 1.1 km/h 14.5 km/h 75.7% 0 mm 214 W/m2
11:09 18.4 °C 13.9 °C 1024.9 hPa East 1.8 km/h 9.7 km/h 75.2% 0 mm 183 W/m2
11:14 18.4 °C 13.8 °C 1024.9 hPa East 0.2 km/h 9.7 km/h 74.7% 0 mm 148 W/m2
11:19 18.4 °C 13.9 °C 1024.9 hPa East 1.9 km/h 9.7 km/h 75.3% 0 mm 158 W/m2
11:24 18.3 °C 14 °C 1024.9 hPa ENE 1.3 km/h 9.7 km/h 75.8% 0 mm 200 W/m2
11:29 18.3 °C 13.9 °C 1024.9 hPa ENE 2.9 km/h 9.7 km/h 75.6% 0 mm 230 W/m2
11:34 18.3 °C 13.9 °C 1024.9 hPa ENE 2.1 km/h 9.7 km/h 75.6% 0 mm 236 W/m2
11:39 18.4 °C 13.9 °C 1024.9 hPa NE 2.9 km/h 11.3 km/h 75.3% 0 mm 232 W/m2
11:44 18.4 °C 13.9 °C 1024.9 hPa NE 2.7 km/h 14.5 km/h 75% 0 mm 206 W/m2
11:49 18.5 °C 14.1 °C 1024.9 hPa ENE 0.6 km/h 14.5 km/h 75.3% 0 mm 158 W/m2
11:54 18.6 °C 14 °C 1024.9 hPa ENE 1.3 km/h 14.5 km/h 75% 0 mm 151 W/m2
11:59 18.5 °C 13.9 °C 1024.9 hPa East 2.4 km/h 14.5 km/h 74.6% 0 mm 158 W/m2
12:09 18.3 °C 13.8 °C 1024.9 hPa ESE 1.4 km/h 6.4 km/h 75.3% 0 mm 216 W/m2
12:14 18.3 °C 13.9 °C 1024.9 hPa NE 2.4 km/h 14.5 km/h 75.6% 0 mm 178 W/m2
12:19 18.4 °C 13.8 °C 1024.9 hPa East 3.4 km/h 14.5 km/h 74.4% 0 mm 197 W/m2
12:24 18.4 °C 13.8 °C 1024.6 hPa East 2.9 km/h 14.5 km/h 74.3% 0 mm 262 W/m2
12:29 18.6 °C 13.9 °C 1024.6 hPa East 0.3 km/h 14.5 km/h 74.2% 0 mm 246 W/m2
12:34 18.7 °C 14 °C 1024.6 hPa ENE 0.5 km/h 14.5 km/h 74.3% 0 mm 206 W/m2
12:39 18.8 °C 13.9 °C 1024.6 hPa ENE 0.6 km/h 6.4 km/h 73.4% 0 mm 190 W/m2
12:44 18.8 °C 13.9 °C 1024.6 hPa East 1.4 km/h 6.4 km/h 73.1% 0 mm 204 W/m2
12:49 18.8 °C 13.9 °C 1024.3 hPa ENE 4.2 km/h 11.3 km/h 73.4% 0 mm 221 W/m2
12:54 18.8 °C 13.9 °C 1024.3 hPa ENE 3.4 km/h 11.3 km/h 73.3% 0 mm 216 W/m2
12:59 18.9 °C 14.1 °C 1024.3 hPa ENE 3.7 km/h 19.3 km/h 73.6% 0 mm 241 W/m2
13:04 18.8 °C 13.8 °C 1024.3 hPa ENE 1.1 km/h 19.3 km/h 72.8% 0 mm 257 W/m2
13:09 18.8 °C 13.8 °C 1024.3 hPa ENE 4.3 km/h 11.3 km/h 72.6% 0 mm 260 W/m2
13:14 18.9 °C 14.1 °C 1024.3 hPa East 1.8 km/h 11.3 km/h 73.4% 0 mm 360 W/m2
13:19 19.1 °C 14.3 °C 1024.3 hPa ENE 0.5 km/h 11.3 km/h 74.1% 0 mm 267 W/m2
13:24 19.2 °C 14.2 °C 1024.3 hPa ENE 1.3 km/h 11.3 km/h 72.8% 0 mm 237 W/m2
13:29 19.3 °C 14.2 °C 1024.3 hPa ENE 4.5 km/h 12.9 km/h 72.5% 0 mm 192 W/m2
13:34 19.2 °C 14 °C 1024.3 hPa East 3.4 km/h 12.9 km/h 71.7% 0 mm 200 W/m2
13:39 19.1 °C 13.9 °C 1024.3 hPa ENE 1.9 km/h 9.7 km/h 72% 0 mm 199 W/m2
13:44 19.1 °C 13.9 °C 1024.3 hPa ENE 0.8 km/h 9.7 km/h 72.2% 0 mm 165 W/m2
13:49 19.1 °C 14 °C 1024.3 hPa East 0.6 km/h 9.7 km/h 72.6% 0 mm 134 W/m2
13:54 18.9 °C 13.7 °C 1024.3 hPa East 2.1 km/h 11.3 km/h 71.4% 0 mm 123 W/m2
13:59 18.8 °C 13.7 °C 1024.3 hPa ENE 4.5 km/h 14.5 km/h 71.9% 0 mm 104 W/m2
14:04 18.7 °C 13.6 °C 1024.3 hPa ENE 1.1 km/h 14.5 km/h 72% 0 mm 77 W/m2
14:09 18.6 °C 13.5 °C 1024.3 hPa ENE 0.5 km/h 11.3 km/h 72.3% 0 mm 86 W/m2
14:10 18.6 °C 13.8 °C 1024.3 hPa Calm   11.3 km/h 74% 0 mm 83 W/m2
14:30 18.6 °C 13.9 °C 1023.9 hPa Calm   11.3 km/h 74% 0 mm 94 W/m2
15:00 18.3 °C 13.8 °C 1023.6 hPa Calm   11.3 km/h 75% 0 mm 54 W/m2
15:30 17.8 °C 13.6 °C 1023.9 hPa ENE 1.6 km/h 16.1 km/h 76% 0 mm 31 W/m2
16:04 17.5 °C 13.2 °C 1023.6 hPa ENE 4.3 km/h 8 km/h 76% 0 mm 83 W/m2
16:09 17.5 °C 13.2 °C 1023.6 hPa ENE 1.8 km/h 11.3 km/h 76% 0 mm 86 W/m2
16:14 17.5 °C 13.3 °C 1023.6 hPa East 1.8 km/h 11.3 km/h 76.2% 0 mm 88 W/m2
16:19 17.5 °C 13.3 °C 1023.6 hPa ENE 1 km/h 11.3 km/h 76% 0 mm 88 W/m2
16:24 17.6 °C 13.2 °C 1023.6 hPa ENE 2.6 km/h 11.3 km/h 75.8% 0 mm 72 W/m2
16:29 17.5 °C 13.2 °C 1023.9 hPa ENE 2.6 km/h 11.3 km/h 75.7% 0 mm 72 W/m2
16:34 17.5 °C 13.2 °C 1023.9 hPa East 1 km/h 11.3 km/h 75.8% 0 mm 37 W/m2
16:39 17.5 °C 13.2 °C 1023.9 hPa East 1.1 km/h 6.4 km/h 76% 0 mm 40 W/m2
16:44 17.4 °C 13.2 °C 1023.9 hPa ENE 1.9 km/h 8 km/h 76% 0 mm 35 W/m2
16:49 17.4 °C 13.2 °C 1023.9 hPa East 3.4 km/h 11.3 km/h 76% 0 mm 32 W/m2
16:54 17.3 °C 13.1 °C 1023.9 hPa East 0.5 km/h 11.3 km/h 76% 0 mm 28 W/m2
16:59 17.3 °C 13.2 °C 1023.9 hPa ESE 0.6 km/h 11.3 km/h 76.5% 0 mm 26 W/m2
17:04 17.3 °C 13.1 °C 1024.3 hPa East 0.3 km/h 11.3 km/h 76.1% 0 mm 25 W/m2
17:09 17.3 °C 13.2 °C 1024.3 hPa East 0.3 km/h 4.8 km/h 77% 0 mm 19 W/m2
17:14 17.2 °C 13.2 °C 1024.3 hPa ENE 0.3 km/h 6.4 km/h 77% 0 mm 19 W/m2
17:19 17.2 °C 13.1 °C 1024.3 hPa ENE 0.2 km/h 6.4 km/h 77% 0 mm 18 W/m2
17:24 17.2 °C 13.1 °C 1023.9 hPa ENE 0.2 km/h 6.4 km/h 77% 0 mm 19 W/m2
17:29 17.1 °C 13 °C 1023.9 hPa ESE 0.2 km/h 6.4 km/h 77% 0 mm 18 W/m2
17:34 17.1 °C 13 °C 1023.9 hPa Calm   6.4 km/h 77% 0 mm 21 W/m2
17:39 17 °C 12.9 °C 1023.9 hPa East 1.6 km/h 9.7 km/h 77% 0 mm 32 W/m2
17:44 16.9 °C 12.9 °C 1023.9 hPa East 0.2 km/h 9.7 km/h 77% 0 mm 33 W/m2
17:49 16.9 °C 12.9 °C 1023.9 hPa NE 0.8 km/h 9.7 km/h 77% 0 mm 25 W/m2
17:54 16.9 °C 12.9 °C 1024.3 hPa NE 0.2 km/h 9.7 km/h 77.1% 0 mm 14 W/m2
17:59 16.9 °C 12.8 °C 1024.3 hPa Calm   9.7 km/h 77.1% 0 mm 11 W/m2
18:04 16.8 °C 12.8 °C 1024.3 hPa NE 0.3 km/h 9.7 km/h 77% 0 mm 7 W/m2
18:09 16.8 °C 12.7 °C 1024.3 hPa NE 1.9 km/h 16.1 km/h 76.7% 0 mm 5 W/m2
18:14 16.8 °C 12.7 °C 1024.3 hPa ENE 0.6 km/h 16.1 km/h 76.8% 0 mm 5 W/m2
18:19 16.8 °C 12.7 °C 1024.3 hPa ENE 0.2 km/h 16.1 km/h 76.7% 0 mm 0 W/m2
18:24 16.7 °C 12.5 °C 1024.3 hPa East 2.6 km/h 16.1 km/h 76.1% 0 mm 0 W/m2
18:29 16.7 °C 12.4 °C 1024.3 hPa East 0.3 km/h 16.1 km/h 76% 0 mm 0 W/m2
18:32 16.7 °C 12.4 °C 1024.3 hPa Calm   16.1 km/h 76% 0 mm 0 W/m2
19:00 16.4 °C 12 °C 1024.6 hPa Calm   9.7 km/h 75% 0 mm 0 W/m2
19:30 16.3 °C 12.1 °C 1024.6 hPa Calm   9.7 km/h 76% 0 mm 0 W/m2
20:04 16.2 °C 11.7 °C 1024.6 hPa Calm     75% 0 mm 0 W/m2
20:09 16.2 °C 11.8 °C 1024.6 hPa ENE 0.2 km/h 3.2 km/h 75.5% 0 mm 0 W/m2
20:14 16.1 °C 11.7 °C 1024.9 hPa NE 1.3 km/h 9.7 km/h 75.3% 0 mm 0 W/m2
20:19 16.1 °C 11.8 °C 1024.6 hPa ENE 1.6 km/h 9.7 km/h 75.7% 0 mm 0 W/m2
20:24 16.1 °C 11.8 °C 1024.6 hPa East 1.9 km/h 14.5 km/h 75.8% 0 mm 0 W/m2
20:29 16.1 °C 11.8 °C 1024.6 hPa NE 1.3 km/h 14.5 km/h 75.9% 0 mm 0 W/m2
20:34 16 °C 11.8 °C 1024.6 hPa NE 1.8 km/h 14.5 km/h 76% 0 mm 0 W/m2
20:39 16 °C 11.8 °C 1024.6 hPa ENE 0.5 km/h 6.4 km/h 76% 0 mm 0 W/m2
20:44 15.9 °C 11.7 °C 1024.6 hPa ENE 2.4 km/h 11.3 km/h 76% 0 mm 0 W/m2
20:49 15.9 °C 11.8 °C 1024.6 hPa East 0.8 km/h 11.3 km/h 76.2% 0 mm 0 W/m2
20:54 15.9 °C 11.8 °C 1024.6 hPa East 1 km/h 11.3 km/h 76.8% 0 mm 0 W/m2
20:59 15.9 °C 11.8 °C 1024.6 hPa Calm   11.3 km/h 77% 0 mm 0 W/m2
21:04 15.8 °C 11.8 °C 1024.9 hPa Calm   11.3 km/h 77% 0 mm 0 W/m2
21:09 15.8 °C 11.8 °C 1024.9 hPa NE 0.8 km/h 8 km/h 77% 0 mm 0 W/m2
21:14 15.8 °C 11.8 °C 1024.9 hPa NE 0.5 km/h 8 km/h 77% 0 mm 0 W/m2
21:19 15.8 °C 11.9 °C 1024.9 hPa NE 0.2 km/h 8 km/h 77.5% 0 mm 0 W/m2
21:24 15.7 °C 11.8 °C 1024.9 hPa Calm   8 km/h 77.5% 0 mm 0 W/m2
21:29 15.7 °C 11.8 °C 1024.9 hPa NE 0.3 km/h 8 km/h 77.7% 0 mm 0 W/m2
21:34 15.7 °C 11.9 °C 1024.9 hPa Calm   8 km/h 78% 0 mm 0 W/m2
21:39 15.7 °C 11.8 °C 1024.9 hPa East 1.1 km/h 8 km/h 78% 0 mm 0 W/m2
21:44 15.7 °C 11.8 °C 1024.9 hPa ENE 0.8 km/h 8 km/h 78% 0 mm 0 W/m2
21:49 15.7 °C 11.9 °C 1024.9 hPa Calm   8 km/h 78.2% 0 mm 0 W/m2
21:54 15.6 °C 11.9 °C 1024.6 hPa ENE 2.1 km/h 8 km/h 78.4% 0 mm 0 W/m2
21:59 15.6 °C 12 °C 1024.9 hPa ENE 0.6 km/h 8 km/h 79% 0 mm 0 W/m2
22:04 15.6 °C 11.8 °C 1024.9 hPa East 3.4 km/h 11.3 km/h 78.4% 0 mm 0 W/m2
22:09 15.6 °C 11.8 °C 1024.9 hPa ENE 2.3 km/h 11.3 km/h 78.3% 0 mm 0 W/m2
22:14 15.6 °C 11.9 °C 1024.9 hPa ENE 3.5 km/h 11.3 km/h 79% 0 mm 0 W/m2
22:19 15.6 °C 11.9 °C 1024.6 hPa East 0.8 km/h 11.3 km/h 79% 0 mm 0 W/m2
22:24 15.5 °C 11.9 °C 1024.6 hPa ENE 2.3 km/h 11.3 km/h 79% 0 mm 0 W/m2
22:29 15.5 °C 11.9 °C 1024.6 hPa ENE 1.3 km/h 11.3 km/h 79% 0 mm 0 W/m2
22:34 15.5 °C 11.9 °C 1024.6 hPa NE 2.4 km/h 11.3 km/h 79% 0 mm 0 W/m2
22:39 15.5 °C 11.9 °C 1024.6 hPa ENE 0.3 km/h 9.7 km/h 79% 0 mm 0 W/m2
22:44 15.4 °C 12 °C 1024.6 hPa ENE 0.8 km/h 9.7 km/h 79.8% 0 mm 0 W/m2
22:49 15.4 °C 12 °C 1024.6 hPa NE 1 km/h 9.7 km/h 80% 0 mm 0 W/m2
22:54 15.4 °C 12 °C 1024.6 hPa NE 1 km/h 9.7 km/h 80% 0 mm 0 W/m2
22:59 15.4 °C 11.9 °C 1024.6 hPa NE 0.8 km/h 9.7 km/h 80% 0 mm 0 W/m2
23:04 15.3 °C 11.9 °C 1024.6 hPa NE 0.5 km/h 6.4 km/h 80% 0 mm 0 W/m2
23:09 15.3 °C 11.9 °C 1024.6 hPa NE 1.1 km/h 8 km/h 80% 0 mm 0 W/m2
23:14 15.3 °C 11.9 °C 1024.6 hPa NE 1.6 km/h 8 km/h 80% 0 mm 0 W/m2
23:19 15.3 °C 12.1 °C 1024.3 hPa NE 0.3 km/h 8 km/h 80.8% 0 mm 0 W/m2
23:24 15.3 °C 12.1 °C 1024.3 hPa NE 1 km/h 8 km/h 81% 0 mm 0 W/m2
23:29 15.2 °C 12 °C 1024.3 hPa Calm   8 km/h 81% 0 mm 0 W/m2
23:34 15.2 °C 12 °C 1024.3 hPa NE 1.3 km/h 8 km/h 81% 0 mm 0 W/m2
23:39 15.2 °C 11.9 °C 1024.3 hPa NE 0.2 km/h 6.4 km/h 81% 0 mm 0 W/m2
23:44 15.2 °C 11.9 °C 1024.3 hPa ENE 0.3 km/h 6.4 km/h 81% 0 mm 0 W/m2
23:49 15.2 °C 12.1 °C 1024.6 hPa Calm   6.4 km/h 81.7% 0 mm 0 W/m2
23:54 15.1 °C 12.1 °C 1024.6 hPa ENE 0.3 km/h 6.4 km/h 82% 0 mm 0 W/m2
23:59 15.1 °C 12.1 °C 1024.6 hPa ENE 0.2 km/h 6.4 km/h 82% 0 mm 0 W/m2
Hartford County Weather
Compliments of Weather Underground - 4 mb